sensor_id;sensor_type;location;lat;lon;timestamp;pressure;altitude;pressure_sealevel;temperature;humidity
61908;BME280;47864;52.526;19.672;2023-05-12T00:00:40;101476.63;;;11.89;56.94
61908;BME280;47864;52.526;19.672;2023-05-12T00:02:41;101478.72;;;11.86;56.48
61908;BME280;47864;52.526;19.672;2023-05-12T00:04:43;101461.19;;;11.73;56.48
61908;BME280;47864;52.526;19.672;2023-05-12T00:06:45;101473.69;;;11.92;56.62
61908;BME280;47864;52.526;19.672;2023-05-12T00:08:46;101473.25;;;11.77;56.39
61908;BME280;47864;52.526;19.672;2023-05-12T00:10:48;101467.34;;;11.74;56.57
61908;BME280;47864;52.526;19.672;2023-05-12T00:12:50;101438.72;;;11.47;56.75
61908;BME280;47864;52.526;19.672;2023-05-12T00:14:51;101483.19;;;11.75;56.83
61908;BME280;47864;52.526;19.672;2023-05-12T00:16:53;101484.19;;;11.84;56.92
61908;BME280;47864;52.526;19.672;2023-05-12T00:18:55;101479.84;;;11.83;56.49
61908;BME280;47864;52.526;19.672;2023-05-12T00:20:56;101461.63;;;11.78;56.52
61908;BME280;47864;52.526;19.672;2023-05-12T00:22:58;101472.97;;;11.80;56.45
61908;BME280;47864;52.526;19.672;2023-05-12T00:24:59;101473.69;;;11.82;56.44
61908;BME280;47864;52.526;19.672;2023-05-12T00:27:01;101479.13;;;11.81;56.35
61908;BME280;47864;52.526;19.672;2023-05-12T00:29:02;101478.56;;;11.77;56.64
61908;BME280;47864;52.526;19.672;2023-05-12T00:31:04;101477.56;;;11.78;56.32
61908;BME280;47864;52.526;19.672;2023-05-12T00:33:06;101463.38;;;11.59;56.50
61908;BME280;47864;52.526;19.672;2023-05-12T00:35:07;101477.69;;;11.67;56.40
61908;BME280;47864;52.526;19.672;2023-05-12T00:37:09;101476.53;;;11.60;56.80
61908;BME280;47864;52.526;19.672;2023-05-12T00:39:10;101465.34;;;11.57;56.94
61908;BME280;47864;52.526;19.672;2023-05-12T00:41:12;101480.31;;;11.58;56.83
61908;BME280;47864;52.526;19.672;2023-05-12T00:43:13;101486.75;;;11.65;57.30
61908;BME280;47864;52.526;19.672;2023-05-12T00:45:15;101477.69;;;11.67;56.85
61908;BME280;47864;52.526;19.672;2023-05-12T00:47:16;101475.25;;;11.55;57.57
61908;BME280;47864;52.526;19.672;2023-05-12T00:49:18;101471.41;;;11.38;57.61
61908;BME280;47864;52.526;19.672;2023-05-12T00:51:20;101479.44;;;11.48;57.34
61908;BME280;47864;52.526;19.672;2023-05-12T00:53:23;101481.69;;;11.52;56.63
61908;BME280;47864;52.526;19.672;2023-05-12T00:55:24;101492.88;;;11.56;56.55
61908;BME280;47864;52.526;19.672;2023-05-12T00:57:26;101477.31;;;11.41;57.47
61908;BME280;47864;52.526;19.672;2023-05-12T00:59:27;101487.25;;;11.49;57.38
61908;BME280;47864;52.526;19.672;2023-05-12T01:01:29;101472.97;;;11.40;57.96
61908;BME280;47864;52.526;19.672;2023-05-12T01:03:30;101487.22;;;11.39;57.83
61908;BME280;47864;52.526;19.672;2023-05-12T01:05:38;101477.88;;;11.35;57.95
61908;BME280;47864;52.526;19.672;2023-05-12T01:07:43;101490.72;;;11.40;58.00
61908;BME280;47864;52.526;19.672;2023-05-12T01:09:46;101475.53;;;11.21;58.18
61908;BME280;47864;52.526;19.672;2023-05-12T01:11:47;101505.28;;;11.36;58.42
61908;BME280;47864;52.526;19.672;2023-05-12T01:13:48;101493.13;;;11.13;58.85
61908;BME280;47864;52.526;19.672;2023-05-12T01:15:51;101500.25;;;11.12;59.18
61908;BME280;47864;52.526;19.672;2023-05-12T01:17:59;101501.25;;;11.21;59.06
61908;BME280;47864;52.526;19.672;2023-05-12T01:20:04;101499.81;;;11.07;58.92
61908;BME280;47864;52.526;19.672;2023-05-12T01:22:10;101504.88;;;11.10;59.37
61908;BME280;47864;52.526;19.672;2023-05-12T01:24:14;101506.25;;;11.14;58.91
61908;BME280;47864;52.526;19.672;2023-05-12T01:26:17;101486.59;;;10.96;59.52
61908;BME280;47864;52.526;19.672;2023-05-12T01:28:20;101508.44;;;10.99;59.96
61908;BME280;47864;52.526;19.672;2023-05-12T01:30:22;101510.25;;;10.99;59.81
61908;BME280;47864;52.526;19.672;2023-05-12T01:32:25;101504.81;;;11.00;60.07
61908;BME280;47864;52.526;19.672;2023-05-12T01:34:27;101512.31;;;10.95;60.00
61908;BME280;47864;52.526;19.672;2023-05-12T01:36:28;101508.69;;;10.96;59.73
61908;BME280;47864;52.526;19.672;2023-05-12T01:38:30;101504.44;;;10.84;59.92
61908;BME280;47864;52.526;19.672;2023-05-12T01:40:31;101497.69;;;10.80;60.00
61908;BME280;47864;52.526;19.672;2023-05-12T01:42:33;101467.16;;;10.65;60.10
61908;BME280;47864;52.526;19.672;2023-05-12T01:44:34;101510.47;;;10.86;60.30
61908;BME280;47864;52.526;19.672;2023-05-12T01:46:36;101513.56;;;10.91;59.85
61908;BME280;47864;52.526;19.672;2023-05-12T01:48:37;101514.84;;;10.97;60.06
61908;BME280;47864;52.526;19.672;2023-05-12T01:50:39;101510.19;;;10.89;60.50
61908;BME280;47864;52.526;19.672;2023-05-12T01:52:40;101515.78;;;10.86;59.93
61908;BME280;47864;52.526;19.672;2023-05-12T01:54:42;101516.47;;;10.88;60.20
61908;BME280;47864;52.526;19.672;2023-05-12T01:56:43;101521.72;;;10.99;60.02
61908;BME280;47864;52.526;19.672;2023-05-12T01:58:44;101520.69;;;10.91;60.40
61908;BME280;47864;52.526;19.672;2023-05-12T02:00:46;101495.78;;;10.61;60.48
61908;BME280;47864;52.526;19.672;2023-05-12T02:02:47;101519.69;;;10.71;60.60
61908;BME280;47864;52.526;19.672;2023-05-12T02:04:49;101517.75;;;10.73;61.43
61908;BME280;47864;52.526;19.672;2023-05-12T02:06:51;101525.66;;;10.84;60.94
61908;BME280;47864;52.526;19.672;2023-05-12T02:08:52;101529.34;;;10.72;60.83
61908;BME280;47864;52.526;19.672;2023-05-12T02:11:07;101496.47;;;10.63;61.01
61908;BME280;47864;52.526;19.672;2023-05-12T02:13:08;101514.72;;;10.57;61.49
61908;BME280;47864;52.526;19.672;2023-05-12T02:15:10;101529.53;;;10.59;61.65
61908;BME280;47864;52.526;19.672;2023-05-12T02:17:11;101526.25;;;10.67;61.83
61908;BME280;47864;52.526;19.672;2023-05-12T02:19:13;101527.72;;;10.60;61.73
61908;BME280;47864;52.526;19.672;2023-05-12T02:21:14;101528.25;;;10.54;62.26
61908;BME280;47864;52.526;19.672;2023-05-12T02:23:16;101520.41;;;10.52;61.93
61908;BME280;47864;52.526;19.672;2023-05-12T02:25:17;101528.69;;;10.59;62.46
61908;BME280;47864;52.526;19.672;2023-05-12T02:27:19;101515.69;;;10.56;62.50
61908;BME280;47864;52.526;19.672;2023-05-12T02:29:20;101517.63;;;10.54;62.53
61908;BME280;47864;52.526;19.672;2023-05-12T02:31:22;101521.63;;;10.48;62.18
61908;BME280;47864;52.526;19.672;2023-05-12T02:33:23;101528.69;;;10.59;62.01
61908;BME280;47864;52.526;19.672;2023-05-12T02:35:25;101524.06;;;10.40;62.53
61908;BME280;47864;52.526;19.672;2023-05-12T02:37:26;101522.19;;;10.31;63.07
61908;BME280;47864;52.526;19.672;2023-05-12T02:39:28;101537.41;;;10.50;62.82
61908;BME280;47864;52.526;19.672;2023-05-12T02:41:29;101538.44;;;10.38;62.90
61908;BME280;47864;52.526;19.672;2023-05-12T02:43:31;101527.88;;;10.26;63.59
61908;BME280;47864;52.526;19.672;2023-05-12T02:45:32;101525.56;;;10.33;63.01
61908;BME280;47864;52.526;19.672;2023-05-12T02:47:34;101527.53;;;10.20;63.68
61908;BME280;47864;52.526;19.672;2023-05-12T02:49:36;101527.13;;;10.36;63.28
61908;BME280;47864;52.526;19.672;2023-05-12T02:51:37;101540.09;;;10.39;63.46
61908;BME280;47864;52.526;19.672;2023-05-12T02:53:38;101539.06;;;10.30;63.51
61908;BME280;47864;52.526;19.672;2023-05-12T02:55:40;101549.13;;;10.47;63.17
61908;BME280;47864;52.526;19.672;2023-05-12T02:57:42;101523.53;;;10.25;63.56
61908;BME280;47864;52.526;19.672;2023-05-12T02:59:44;101555.34;;;10.25;64.08
61908;BME280;47864;52.526;19.672;2023-05-12T03:01:45;101556.53;;;10.33;64.28
61908;BME280;47864;52.526;19.672;2023-05-12T03:03:47;101551.31;;;10.42;63.47
61908;BME280;47864;52.526;19.672;2023-05-12T03:05:48;101551.06;;;10.45;64.01
61908;BME280;47864;52.526;19.672;2023-05-12T03:07:50;101542.31;;;10.34;63.69
61908;BME280;47864;52.526;19.672;2023-05-12T03:09:52;101536.56;;;10.28;64.24
61908;BME280;47864;52.526;19.672;2023-05-12T03:11:53;101554.84;;;10.32;64.37
61908;BME280;47864;52.526;19.672;2023-05-12T03:13:54;101555.91;;;10.40;64.28
61908;BME280;47864;52.526;19.672;2023-05-12T03:15:56;101541.25;;;10.25;64.56
61908;BME280;47864;52.526;19.672;2023-05-12T03:17:57;101548.22;;;10.37;64.45
61908;BME280;47864;52.526;19.672;2023-05-12T03:19:59;101553.00;;;10.43;64.96
61908;BME280;47864;52.526;19.672;2023-05-12T03:22:01;101552.25;;;10.52;64.40
61908;BME280;47864;52.526;19.672;2023-05-12T03:24:03;101563.94;;;10.50;64.58
61908;BME280;47864;52.526;19.672;2023-05-12T03:26:04;101556.75;;;10.41;64.77
61908;BME280;47864;52.526;19.672;2023-05-12T03:28:06;101549.41;;;10.33;65.02
61908;BME280;47864;52.526;19.672;2023-05-12T03:30:08;101554.41;;;10.47;64.93
61908;BME280;47864;52.526;19.672;2023-05-12T03:32:09;101543.38;;;10.63;64.54
61908;BME280;47864;52.526;19.672;2023-05-12T03:34:11;101555.31;;;10.89;63.37
61908;BME280;47864;52.526;19.672;2023-05-12T03:36:12;101553.19;;;10.83;62.85
61908;BME280;47864;52.526;19.672;2023-05-12T03:38:14;101537.66;;;10.79;63.08
61908;BME280;47864;52.526;19.672;2023-05-12T03:40:15;101560.38;;;10.92;63.23
61908;BME280;47864;52.526;19.672;2023-05-12T03:42:17;101555.75;;;10.74;63.88
61908;BME280;47864;52.526;19.672;2023-05-12T03:44:18;101537.94;;;10.64;63.65
61908;BME280;47864;52.526;19.672;2023-05-12T03:46:19;101566.88;;;10.88;63.80
61908;BME280;47864;52.526;19.672;2023-05-12T03:48:21;101571.31;;;10.99;63.34
61908;BME280;47864;52.526;19.672;2023-05-12T03:50:23;101557.44;;;10.95;63.23
61908;BME280;47864;52.526;19.672;2023-05-12T03:52:24;101561.53;;;10.99;63.34
61908;BME280;47864;52.526;19.672;2023-05-12T03:54:25;101551.22;;;11.06;63.32
61908;BME280;47864;52.526;19.672;2023-05-12T03:56:27;101564.69;;;11.35;63.26
61908;BME280;47864;52.526;19.672;2023-05-12T03:58:28;101580.88;;;11.62;61.41
61908;BME280;47864;52.526;19.672;2023-05-12T04:00:30;101568.16;;;11.96;59.04
61908;BME280;47864;52.526;19.672;2023-05-12T04:02:31;101576.34;;;12.24;58.36
61908;BME280;47864;52.526;19.672;2023-05-12T04:04:33;101579.47;;;12.67;57.64
61908;BME280;47864;52.526;19.672;2023-05-12T04:06:34;101582.81;;;12.60;56.33
61908;BME280;47864;52.526;19.672;2023-05-12T04:08:36;101573.53;;;13.02;55.43
61908;BME280;47864;52.526;19.672;2023-05-12T04:10:41;101591.19;;;13.69;53.53
61908;BME280;47864;52.526;19.672;2023-05-12T04:12:42;101575.91;;;13.98;51.47
61908;BME280;47864;52.526;19.672;2023-05-12T04:14:44;101588.75;;;14.30;50.00
61908;BME280;47864;52.526;19.672;2023-05-12T04:16:45;101596.31;;;13.90;51.35
61908;BME280;47864;52.526;19.672;2023-05-12T04:18:47;101591.28;;;13.77;51.71
61908;BME280;47864;52.526;19.672;2023-05-12T04:20:48;101600.63;;;14.18;50.90
61908;BME280;47864;52.526;19.672;2023-05-12T04:22:50;101595.66;;;14.86;48.69
61908;BME280;47864;52.526;19.672;2023-05-12T04:24:52;101589.88;;;14.55;48.72
61908;BME280;47864;52.526;19.672;2023-05-12T04:26:53;101605.50;;;14.50;49.03
61908;BME280;47864;52.526;19.672;2023-05-12T04:28:55;101602.47;;;14.80;48.92
61908;BME280;47864;52.526;19.672;2023-05-12T04:31:01;101601.34;;;15.09;46.83
61908;BME280;47864;52.526;19.672;2023-05-12T04:33:02;101599.75;;;15.68;44.61
61908;BME280;47864;52.526;19.672;2023-05-12T04:35:04;101593.97;;;15.80;44.24
61908;BME280;47864;52.526;19.672;2023-05-12T04:37:06;101598.41;;;15.97;43.88
61908;BME280;47864;52.526;19.672;2023-05-12T04:39:07;101594.69;;;15.98;44.20
61908;BME280;47864;52.526;19.672;2023-05-12T04:41:09;101594.81;;;16.39;42.83
61908;BME280;47864;52.526;19.672;2023-05-12T04:43:10;101600.75;;;17.16;41.55
61908;BME280;47864;52.526;19.672;2023-05-12T04:45:31;101603.25;;;18.36;39.82
61908;BME280;47864;52.526;19.672;2023-05-12T04:47:33;101556.75;;;18.35;37.99
61908;BME280;47864;52.526;19.672;2023-05-12T04:49:34;101583.84;;;19.31;36.45
61908;BME280;47864;52.526;19.672;2023-05-12T04:51:36;101614.19;;;19.02;37.54
61908;BME280;47864;52.526;19.672;2023-05-12T04:53:37;101613.44;;;18.94;36.36
61908;BME280;47864;52.526;19.672;2023-05-12T04:55:39;101619.91;;;18.85;36.20
61908;BME280;47864;52.526;19.672;2023-05-12T04:57:40;101617.13;;;19.30;36.01
61908;BME280;47864;52.526;19.672;2023-05-12T04:59:42;101614.19;;;19.02;35.42
61908;BME280;47864;52.526;19.672;2023-05-12T05:01:43;101615.88;;;19.04;35.99
61908;BME280;47864;52.526;19.672;2023-05-12T05:03:46;101616.00;;;19.92;35.31
61908;BME280;47864;52.526;19.672;2023-05-12T05:05:48;101609.16;;;19.60;35.49
61908;BME280;47864;52.526;19.672;2023-05-12T05:07:49;101620.47;;;19.85;34.94
61908;BME280;47864;52.526;19.672;2023-05-12T05:09:50;101613.03;;;19.57;35.01
61908;BME280;47864;52.526;19.672;2023-05-12T05:11:52;101621.09;;;19.20;35.65
61908;BME280;47864;52.526;19.672;2023-05-12T05:13:53;101620.53;;;19.62;35.19
61908;BME280;47864;52.526;19.672;2023-05-12T05:15:55;101603.91;;;19.88;35.48
61908;BME280;47864;52.526;19.672;2023-05-12T05:17:57;101615.16;;;19.62;35.00
61908;BME280;47864;52.526;19.672;2023-05-12T05:20:02;101620.00;;;19.66;35.46
61908;BME280;47864;52.526;19.672;2023-05-12T05:22:11;101619.66;;;19.47;35.54
61908;BME280;47864;52.526;19.672;2023-05-12T05:24:13;101623.88;;;19.93;34.70
61908;BME280;47864;52.526;19.672;2023-05-12T05:26:14;101629.69;;;19.38;35.45
61908;BME280;47864;52.526;19.672;2023-05-12T05:28:16;101627.66;;;18.80;36.82
61908;BME280;47864;52.526;19.672;2023-05-12T05:30:17;101612.00;;;19.21;35.93
61908;BME280;47864;52.526;19.672;2023-05-12T05:32:19;101623.91;;;18.66;37.11
61908;BME280;47864;52.526;19.672;2023-05-12T05:34:20;101617.72;;;19.03;36.77
61908;BME280;47864;52.526;19.672;2023-05-12T05:36:22;101627.78;;;19.61;37.29
61908;BME280;47864;52.526;19.672;2023-05-12T05:38:23;101631.25;;;19.85;35.86
61908;BME280;47864;52.526;19.672;2023-05-12T05:40:25;101620.72;;;20.04;35.48
61908;BME280;47864;52.526;19.672;2023-05-12T05:42:26;101612.75;;;19.96;35.19
61908;BME280;47864;52.526;19.672;2023-05-12T05:44:28;101624.34;;;19.97;34.77
61908;BME280;47864;52.526;19.672;2023-05-12T05:46:29;101622.53;;;20.48;34.64
61908;BME280;47864;52.526;19.672;2023-05-12T05:48:31;101631.69;;;20.18;34.24
61908;BME280;47864;52.526;19.672;2023-05-12T05:50:32;101623.91;;;20.29;34.37
61908;BME280;47864;52.526;19.672;2023-05-12T05:52:34;101628.03;;;20.10;35.23
61908;BME280;47864;52.526;19.672;2023-05-12T05:54:35;101625.53;;;20.24;35.42
61908;BME280;47864;52.526;19.672;2023-05-12T05:56:36;101633.38;;;20.97;34.40
61908;BME280;47864;52.526;19.672;2023-05-12T05:58:38;101629.34;;;21.08;33.90
61908;BME280;47864;52.526;19.672;2023-05-12T06:00:40;101630.94;;;20.60;34.97
61908;BME280;47864;52.526;19.672;2023-05-12T06:02:42;101628.88;;;21.04;34.23
61908;BME280;47864;52.526;19.672;2023-05-12T06:04:43;101643.66;;;21.08;33.75
61908;BME280;47864;52.526;19.672;2023-05-12T06:06:45;101638.38;;;21.00;33.60
61908;BME280;47864;52.526;19.672;2023-05-12T06:08:46;101633.91;;;20.65;34.50
61908;BME280;47864;52.526;19.672;2023-05-12T06:10:48;101638.56;;;20.56;34.44
61908;BME280;47864;52.526;19.672;2023-05-12T06:12:49;101645.34;;;20.16;34.93
61908;BME280;47864;52.526;19.672;2023-05-12T06:14:51;101620.47;;;19.99;34.94
61908;BME280;47864;52.526;19.672;2023-05-12T06:16:52;101636.84;;;20.48;35.08
61908;BME280;47864;52.526;19.672;2023-05-12T06:18:54;101640.28;;;20.28;34.71
61908;BME280;47864;52.526;19.672;2023-05-12T06:20:55;101642.72;;;20.37;34.98
61908;BME280;47864;52.526;19.672;2023-05-12T06:22:57;101628.75;;;20.48;34.89
61908;BME280;47864;52.526;19.672;2023-05-12T06:24:59;101625.34;;;20.25;35.63
61908;BME280;47864;52.526;19.672;2023-05-12T06:27:01;101637.56;;;21.21;34.40
61908;BME280;47864;52.526;19.672;2023-05-12T06:29:05;101624.81;;;21.15;33.95
61908;BME280;47864;52.526;19.672;2023-05-12T06:31:07;101646.59;;;21.35;33.83
61908;BME280;47864;52.526;19.672;2023-05-12T06:33:08;101624.41;;;20.90;33.55
61908;BME280;47864;52.526;19.672;2023-05-12T06:35:10;101643.66;;;20.87;34.21
61908;BME280;47864;52.526;19.672;2023-05-12T06:37:12;101630.97;;;21.09;34.20
61908;BME280;47864;52.526;19.672;2023-05-12T06:39:13;101637.44;;;21.29;33.67
61908;BME280;47864;52.526;19.672;2023-05-12T06:41:14;101647.38;;;21.29;33.98
61908;BME280;47864;52.526;19.672;2023-05-12T06:43:16;101635.94;;;20.63;34.46
61908;BME280;47864;52.526;19.672;2023-05-12T06:45:18;101642.94;;;20.57;35.63
61908;BME280;47864;52.526;19.672;2023-05-12T06:47:20;101636.28;;;21.73;33.86
61908;BME280;47864;52.526;19.672;2023-05-12T06:49:21;101627.00;;;21.54;33.58
61908;BME280;47864;52.526;19.672;2023-05-12T06:51:23;101650.09;;;22.99;32.32
61908;BME280;47864;52.526;19.672;2023-05-12T06:53:24;101653.44;;;23.01;31.02
61908;BME280;47864;52.526;19.672;2023-05-12T06:55:26;101637.31;;;22.67;31.88
61908;BME280;47864;52.526;19.672;2023-05-12T06:57:27;101636.25;;;22.55;32.11
61908;BME280;47864;52.526;19.672;2023-05-12T06:59:28;101640.94;;;23.20;31.76
61908;BME280;47864;52.526;19.672;2023-05-12T07:01:31;101654.44;;;22.81;31.62
61908;BME280;47864;52.526;19.672;2023-05-12T07:03:32;101639.66;;;21.81;32.21
61908;BME280;47864;52.526;19.672;2023-05-12T07:05:34;101637.19;;;22.21;31.54
61908;BME280;47864;52.526;19.672;2023-05-12T07:07:36;101640.81;;;21.38;32.61
61908;BME280;47864;52.526;19.672;2023-05-12T07:09:37;101655.22;;;21.79;32.84
61908;BME280;47864;52.526;19.672;2023-05-12T07:11:39;101653.31;;;22.08;32.45
61908;BME280;47864;52.526;19.672;2023-05-12T07:13:40;101643.59;;;22.13;33.63
61908;BME280;47864;52.526;19.672;2023-05-12T07:15:42;101649.66;;;22.83;32.32
61908;BME280;47864;52.526;19.672;2023-05-12T07:17:43;101656.75;;;22.29;32.94
61908;BME280;47864;52.526;19.672;2023-05-12T07:19:45;101639.81;;;22.62;31.76
61908;BME280;47864;52.526;19.672;2023-05-12T07:21:47;101636.75;;;22.24;32.36
61908;BME280;47864;52.526;19.672;2023-05-12T07:23:48;101649.38;;;21.76;32.58
61908;BME280;47864;52.526;19.672;2023-05-12T07:25:50;101626.94;;;21.41;34.02
61908;BME280;47864;52.526;19.672;2023-05-12T07:27:51;101655.50;;;21.56;32.56
61908;BME280;47864;52.526;19.672;2023-05-12T07:29:53;101646.09;;;21.52;32.76
61908;BME280;47864;52.526;19.672;2023-05-12T07:31:54;101644.31;;;21.66;32.66
61908;BME280;47864;52.526;19.672;2023-05-12T07:33:56;101636.28;;;21.45;32.23
61908;BME280;47864;52.526;19.672;2023-05-12T07:35:57;101633.72;;;20.87;32.80
61908;BME280;47864;52.526;19.672;2023-05-12T07:37:59;101636.13;;;21.25;33.77
61908;BME280;47864;52.526;19.672;2023-05-12T07:40:00;101648.28;;;21.14;31.92
61908;BME280;47864;52.526;19.672;2023-05-12T07:42:02;101625.34;;;20.61;33.02
61908;BME280;47864;52.526;19.672;2023-05-12T07:44:03;101635.16;;;21.11;32.70
61908;BME280;47864;52.526;19.672;2023-05-12T07:46:05;101646.41;;;21.15;32.97
61908;BME280;47864;52.526;19.672;2023-05-12T07:48:06;101650.09;;;21.56;32.26
61908;BME280;47864;52.526;19.672;2023-05-12T07:50:08;101648.16;;;21.22;33.26
61908;BME280;47864;52.526;19.672;2023-05-12T07:52:09;101652.78;;;21.91;32.12
61908;BME280;47864;52.526;19.672;2023-05-12T07:54:11;101648.59;;;21.82;32.15
61908;BME280;47864;52.526;19.672;2023-05-12T07:56:13;101652.69;;;21.43;32.22
61908;BME280;47864;52.526;19.672;2023-05-12T07:58:15;101642.59;;;21.58;32.05
61908;BME280;47864;52.526;19.672;2023-05-12T08:00:17;101636.63;;;21.63;32.99
61908;BME280;47864;52.526;19.672;2023-05-12T08:02:19;101642.19;;;21.55;33.00
61908;BME280;47864;52.526;19.672;2023-05-12T08:04:20;101641.66;;;20.96;32.72
61908;BME280;47864;52.526;19.672;2023-05-12T08:06:22;101653.75;;;20.78;33.10
61908;BME280;47864;52.526;19.672;2023-05-12T08:08:25;101625.88;;;20.71;33.16
61908;BME280;47864;52.526;19.672;2023-05-12T08:10:26;101633.44;;;21.25;32.50
61908;BME280;47864;52.526;19.672;2023-05-12T08:12:28;101638.38;;;21.77;32.68
61908;BME280;47864;52.526;19.672;2023-05-12T08:14:29;101642.94;;;21.77;32.08
61908;BME280;47864;52.526;19.672;2023-05-12T08:16:31;101615.69;;;21.65;31.95
61908;BME280;47864;52.526;19.672;2023-05-12T08:18:32;101639.13;;;21.37;31.71
61908;BME280;47864;52.526;19.672;2023-05-12T08:20:34;101617.81;;;20.21;33.43
61908;BME280;47864;52.526;19.672;2023-05-12T08:22:35;101638.63;;;20.84;33.92
61908;BME280;47864;52.526;19.672;2023-05-12T08:24:37;101635.53;;;20.30;34.34
61908;BME280;47864;52.526;19.672;2023-05-12T08:26:39;101610.63;;;20.42;34.44
61908;BME280;47864;52.526;19.672;2023-05-12T08:28:40;101637.69;;;20.70;33.56
61908;BME280;47864;52.526;19.672;2023-05-12T08:30:42;101633.25;;;21.26;33.62
61908;BME280;47864;52.526;19.672;2023-05-12T08:32:44;101641.13;;;21.49;32.90
61908;BME280;47864;52.526;19.672;2023-05-12T08:34:45;101618.81;;;20.92;33.07
61908;BME280;47864;52.526;19.672;2023-05-12T08:36:47;101641.94;;;21.22;33.55
61908;BME280;47864;52.526;19.672;2023-05-12T08:38:48;101631.69;;;21.39;33.72
61908;BME280;47864;52.526;19.672;2023-05-12T08:43:24;101624.69;;;21.79;32.16
61908;BME280;47864;52.526;19.672;2023-05-12T08:45:25;101634.50;;;21.93;31.87
61908;BME280;47864;52.526;19.672;2023-05-12T08:47:30;101626.47;;;22.54;31.82
61908;BME280;47864;52.526;19.672;2023-05-12T08:49:34;101641.91;;;21.78;29.09
61908;BME280;47864;52.526;19.672;2023-05-12T08:51:37;101643.75;;;22.05;29.58
61908;BME280;47864;52.526;19.672;2023-05-12T08:53:39;101633.75;;;21.64;27.31
61908;BME280;47864;52.526;19.672;2023-05-12T08:55:42;101638.69;;;21.33;27.88
61908;BME280;47864;52.526;19.672;2023-05-12T08:57:58;101649.31;;;21.13;27.77
61908;BME280;47864;52.526;19.672;2023-05-12T09:00:03;101639.88;;;20.81;29.21
61908;BME280;47864;52.526;19.672;2023-05-12T09:02:06;101642.03;;;21.35;27.62
61908;BME280;47864;52.526;19.672;2023-05-12T09:04:09;101628.25;;;21.51;27.65
61908;BME280;47864;52.526;19.672;2023-05-12T09:06:12;101624.13;;;21.27;28.67
61908;BME280;47864;52.526;19.672;2023-05-12T09:08:13;101633.06;;;20.85;28.45
61908;BME280;47864;52.526;19.672;2023-05-12T09:10:17;101646.16;;;21.10;27.71
61908;BME280;47864;52.526;19.672;2023-05-12T09:12:35;101614.19;;;21.07;28.06
61908;BME280;47864;52.526;19.672;2023-05-12T09:14:39;101621.13;;;20.73;28.34
61908;BME280;47864;52.526;19.672;2023-05-12T09:16:44;101648.09;;;21.16;29.09
61908;BME280;47864;52.526;19.672;2023-05-12T09:18:51;101635.50;;;21.51;28.90
61908;BME280;47864;52.526;19.672;2023-05-12T09:20:53;101640.66;;;21.74;27.97
61908;BME280;47864;52.526;19.672;2023-05-12T09:22:54;101635.78;;;21.35;27.99
61908;BME280;47864;52.526;19.672;2023-05-12T09:24:56;101624.00;;;20.72;29.32
61908;BME280;47864;52.526;19.672;2023-05-12T09:26:57;101634.53;;;21.09;29.34
61908;BME280;47864;52.526;19.672;2023-05-12T09:29:06;101625.56;;;21.58;28.90
61908;BME280;47864;52.526;19.672;2023-05-12T09:31:30;101632.81;;;21.23;29.07
61908;BME280;47864;52.526;19.672;2023-05-12T09:33:33;101641.84;;;21.64;28.37
61908;BME280;47864;52.526;19.672;2023-05-12T09:35:42;101643.50;;;21.38;28.25
61908;BME280;47864;52.526;19.672;2023-05-12T09:37:45;101623.88;;;21.50;28.47
61908;BME280;47864;52.526;19.672;2023-05-12T09:39:46;101638.66;;;21.89;28.46
61908;BME280;47864;52.526;19.672;2023-05-12T09:41:48;101635.41;;;21.66;28.23
61908;BME280;47864;52.526;19.672;2023-05-12T09:43:51;101600.53;;;21.15;28.10
61908;BME280;47864;52.526;19.672;2023-05-12T09:45:53;101614.38;;;21.33;28.54
61908;BME280;47864;52.526;19.672;2023-05-12T09:47:54;101630.97;;;21.58;28.97
61908;BME280;47864;52.526;19.672;2023-05-12T09:49:56;101632.88;;;21.30;29.25
61908;BME280;47864;52.526;19.672;2023-05-12T09:51:58;101630.03;;;21.38;28.83
61908;BME280;47864;52.526;19.672;2023-05-12T09:54:00;101642.75;;;21.01;28.38
61908;BME280;47864;52.526;19.672;2023-05-12T09:56:01;101639.13;;;21.64;28.47
61908;BME280;47864;52.526;19.672;2023-05-12T09:58:07;101631.28;;;22.04;28.06
61908;BME280;47864;52.526;19.672;2023-05-12T10:00:12;101627.94;;;22.02;28.43
61908;BME280;47864;52.526;19.672;2023-05-12T10:02:33;101627.31;;;22.00;28.52
61908;BME280;47864;52.526;19.672;2023-05-12T10:04:44;101632.50;;;22.01;28.28
61908;BME280;47864;52.526;19.672;2023-05-12T10:06:47;101623.31;;;21.96;28.07
61908;BME280;47864;52.526;19.672;2023-05-12T10:09:03;101620.41;;;22.38;27.76
61908;BME280;47864;52.526;19.672;2023-05-12T10:11:05;101623.28;;;22.30;27.73
61908;BME280;47864;52.526;19.672;2023-05-12T10:13:07;101606.16;;;22.17;28.05
61908;BME280;47864;52.526;19.672;2023-05-12T10:15:09;101621.38;;;22.24;27.31
61908;BME280;47864;52.526;19.672;2023-05-12T10:17:11;101617.56;;;22.73;28.28
61908;BME280;47864;52.526;19.672;2023-05-12T10:19:13;101620.91;;;22.75;27.56
61908;BME280;47864;52.526;19.672;2023-05-12T10:21:15;101604.41;;;22.50;26.61
61908;BME280;47864;52.526;19.672;2023-05-12T10:23:17;101616.38;;;22.15;27.35
61908;BME280;47864;52.526;19.672;2023-05-12T10:25:20;101612.03;;;21.86;28.52
61908;BME280;47864;52.526;19.672;2023-05-12T10:27:22;101612.53;;;21.61;27.51
61908;BME280;47864;52.526;19.672;2023-05-12T10:29:24;101615.19;;;21.55;28.98
61908;BME280;47864;52.526;19.672;2023-05-12T10:31:26;101608.25;;;21.74;28.67
61908;BME280;47864;52.526;19.672;2023-05-12T10:33:28;101589.47;;;21.31;27.66